UPS81 PANC-KONT
Flight info
| Callsign | UPS81 |
|---|---|
| Flight time | N/A |
| Altitude | 37000 |
| Route | ANCH1 JOH Q801 LAIRE BKA TOU/N0487F390 BTG LANDO J6 PMD ZIGGY8 |
| Aircraft | B748/H-SDE3FGHIM1M2RWXY/LB1 |
Departure
| Time | 2026-05-05 02:04 |
|---|---|
| Airport | Ted Stevens Anchorage International Airport (PANC) |
Arrival
| Time | N/A |
|---|---|
| Airport | Ontario International Airport (KONT) |
| Time | Latitude | Longitude | Altitude | Speed | Heading |
|---|---|---|---|---|---|
| 2026-05-05 01:39 | 61.19265 | -150.00196 | 142 ft | 0 kts | 74° |
| 2026-05-05 01:51 | 61.19262 | -150.00215 | 128 ft | 2 kts | 74° |
| 2026-05-05 01:51 | 61.19258 | -150.00247 | 133 ft | 2 kts | 75° |
| 2026-05-05 01:52 | 61.19254 | -150.00281 | 133 ft | 2 kts | 85° |
| 2026-05-05 01:52 | 61.19253 | -150.00315 | 142 ft | 2 kts | 105° |
| 2026-05-05 01:52 | 61.19260 | -150.00347 | 142 ft | 2 kts | 153° |
| 2026-05-05 01:52 | 61.19276 | -150.00358 | 142 ft | 2 kts | 162° |
| 2026-05-05 01:53 | 61.19291 | -150.00367 | 142 ft | 2 kts | 164° |
| 2026-05-05 01:53 | 61.19296 | -150.00370 | 142 ft | 0 kts | 164° |
| 2026-05-05 01:56 | 61.19295 | -150.00369 | 142 ft | 1 kts | 164° |
| 2026-05-05 01:56 | 61.19267 | -150.00353 | 133 ft | 7 kts | 164° |
| 2026-05-05 01:56 | 61.19217 | -150.00324 | 140 ft | 8 kts | 164° |
| 2026-05-05 01:57 | 61.19183 | -150.00321 | 143 ft | 4 kts | 200° |
| 2026-05-05 01:57 | 61.19156 | -150.00371 | 136 ft | 7 kts | 232° |
| 2026-05-05 01:57 | 61.19134 | -150.00480 | 142 ft | 9 kts | 253° |
| 2026-05-05 01:57 | 61.19117 | -150.00584 | 140 ft | 4 kts | 239° |
| 2026-05-05 01:58 | 61.19086 | -150.00608 | 137 ft | 6 kts | 184° |
| 2026-05-05 01:58 | 61.19034 | -150.00578 | 141 ft | 11 kts | 164° |
| 2026-05-05 01:58 | 61.18931 | -150.00517 | 135 ft | 19 kts | 164° |
| 2026-05-05 01:58 | 61.18795 | -150.00436 | 141 ft | 21 kts | 164° |
| 2026-05-05 01:59 | 61.18656 | -150.00358 | 139 ft | 21 kts | 166° |
| 2026-05-05 01:59 | 61.18517 | -150.00284 | 142 ft | 21 kts | 165° |
| 2026-05-05 01:59 | 61.18377 | -150.00207 | 144 ft | 21 kts | 165° |
| 2026-05-05 01:59 | 61.18238 | -150.00129 | 127 ft | 20 kts | 165° |
| 2026-05-05 02:00 | 61.18101 | -150.00051 | 125 ft | 20 kts | 164° |
| 2026-05-05 02:00 | 61.17965 | -149.99972 | 131 ft | 20 kts | 165° |
| 2026-05-05 02:00 | 61.17830 | -149.99899 | 133 ft | 20 kts | 165° |
| 2026-05-05 02:00 | 61.17694 | -149.99825 | 127 ft | 20 kts | 165° |
| 2026-05-05 02:01 | 61.17559 | -149.99749 | 127 ft | 20 kts | 165° |
| 2026-05-05 02:01 | 61.17424 | -149.99673 | 132 ft | 20 kts | 165° |
| 2026-05-05 02:01 | 61.17289 | -149.99597 | 128 ft | 20 kts | 165° |
| 2026-05-05 02:01 | 61.17177 | -149.99534 | 126 ft | 8 kts | 165° |
| 2026-05-05 02:02 | 61.17134 | -149.99548 | 126 ft | 7 kts | 208° |
| 2026-05-05 02:02 | 61.17115 | -149.99632 | 127 ft | 7 kts | 267° |
| 2026-05-05 02:02 | 61.17115 | -149.99738 | 131 ft | 8 kts | 271° |
| 2026-05-05 02:02 | 61.17128 | -149.99841 | 126 ft | 6 kts | 308° |
| 2026-05-05 02:03 | 61.17167 | -149.99886 | 131 ft | 6 kts | 343° |
| 2026-05-05 02:03 | 61.17250 | -149.99932 | 135 ft | 32 kts | 345° |
| 2026-05-05 02:03 | 61.17759 | -150.00214 | 124 ft | 117 kts | 345° |
| 2026-05-05 02:03 | 61.18761 | -150.00762 | 188 ft | 179 kts | 346° |
| 2026-05-05 02:04 | 61.19996 | -150.01519 | 1059 ft | 187 kts | 336° |
| 2026-05-05 02:04 | 61.21081 | -150.03101 | 2069 ft | 195 kts | 321° |
| 2026-05-05 02:04 | 61.22122 | -150.05071 | 2566 ft | 215 kts | 320° |
| 2026-05-05 02:04 | 61.23385 | -150.06882 | 3099 ft | 227 kts | 338° |
| 2026-05-05 02:05 | 61.24986 | -150.07533 | 3370 ft | 246 kts | 5° |
| 2026-05-05 02:05 | 61.26659 | -150.06536 | 3707 ft | 260 kts | 36° |
| 2026-05-05 02:05 | 61.27830 | -150.03967 | 5004 ft | 246 kts | 60° |
| 2026-05-05 02:05 | 61.28769 | -150.00804 | 5640 ft | 259 kts | 72° |
| 2026-05-05 02:06 | 61.29167 | -149.97248 | 6722 ft | 247 kts | 97° |
| 2026-05-05 02:06 | 61.28778 | -149.93774 | 7411 ft | 253 kts | 121° |
| 2026-05-05 02:06 | 61.27867 | -149.90746 | 8578 ft | 246 kts | 128° |
| 2026-05-05 02:06 | 61.26936 | -149.87699 | 9461 ft | 254 kts | 127° |
| 2026-05-05 02:07 | 61.26030 | -149.84466 | 10277 ft | 262 kts | 121° |
| 2026-05-05 02:07 | 61.25261 | -149.80896 | 10873 ft | 279 kts | 118° |
| 2026-05-05 02:07 | 61.24498 | -149.77040 | 11394 ft | 298 kts | 117° |
| 2026-05-05 02:07 | 61.23667 | -149.72951 | 11895 ft | 318 kts | 118° |
| 2026-05-05 02:08 | 61.22700 | -149.68667 | 12385 ft | 336 kts | 121° |
| 2026-05-05 02:08 | 61.21623 | -149.64218 | 12808 ft | 357 kts | 121° |
| 2026-05-05 02:08 | 61.20461 | -149.59443 | 12915 ft | 385 kts | 120° |
| 2026-05-05 02:08 | 61.19334 | -149.54457 | 14070 ft | 383 kts | 118° |
| 2026-05-05 02:09 | 61.18279 | -149.49451 | 14916 ft | 386 kts | 118° |
| 2026-05-05 02:09 | 61.17200 | -149.44303 | 15663 ft | 391 kts | 119° |
| 2026-05-05 02:09 | 61.16016 | -149.39196 | 16410 ft | 396 kts | 121° |
| 2026-05-05 02:09 | 61.14793 | -149.34037 | 17243 ft | 401 kts | 120° |
| 2026-05-05 02:10 | 61.13592 | -149.28767 | 17963 ft | 408 kts | 120° |
| 2026-05-05 02:10 | 61.12389 | -149.23417 | 18651 ft | 413 kts | 120° |
| 2026-05-05 02:10 | 61.11152 | -149.18018 | 19305 ft | 417 kts | 121° |
| 2026-05-05 02:10 | 61.09895 | -149.12609 | 19990 ft | 420 kts | 120° |
| 2026-05-05 02:11 | 61.08626 | -149.07137 | 20634 ft | 423 kts | 120° |
| 2026-05-05 02:11 | 61.07356 | -149.01627 | 21285 ft | 426 kts | 120° |
| 2026-05-05 02:11 | 61.06074 | -148.96089 | 21906 ft | 429 kts | 120° |
| 2026-05-05 02:11 | 61.04774 | -148.90513 | 22522 ft | 432 kts | 120° |
| 2026-05-05 02:12 | 61.03464 | -148.84910 | 23133 ft | 436 kts | 120° |
| 2026-05-05 02:12 | 61.00812 | -148.73574 | 24071 ft | 441 kts | 121° |
| 2026-05-05 02:12 | 60.99467 | -148.67857 | 24565 ft | 444 kts | 121° |
| 2026-05-05 02:13 | 60.98113 | -148.62123 | 25018 ft | 447 kts | 121° |
| 2026-05-05 02:13 | 60.96746 | -148.56344 | 25487 ft | 450 kts | 121° |
| 2026-05-05 02:13 | 60.95368 | -148.50528 | 25962 ft | 453 kts | 122° |
| 2026-05-05 02:13 | 60.93981 | -148.44694 | 26380 ft | 456 kts | 122° |
| 2026-05-05 02:14 | 60.92580 | -148.38816 | 26830 ft | 458 kts | 122° |
| 2026-05-05 02:14 | 60.91174 | -148.32928 | 27270 ft | 460 kts | 123° |
| 2026-05-05 02:14 | 60.89757 | -148.27014 | 27743 ft | 463 kts | 123° |
| 2026-05-05 02:14 | 60.88323 | -148.21055 | 28207 ft | 466 kts | 123° |
| 2026-05-05 02:15 | 60.86881 | -148.15074 | 28681 ft | 469 kts | 124° |
| 2026-05-05 02:15 | 60.85428 | -148.09053 | 29194 ft | 471 kts | 124° |
| 2026-05-05 02:15 | 60.83997 | -148.03130 | 29989 ft | 468 kts | 125° |
| 2026-05-05 02:15 | 60.82551 | -147.97175 | 30618 ft | 466 kts | 125° |
| 2026-05-05 02:16 | 60.81106 | -147.91253 | 31223 ft | 465 kts | 125° |
| 2026-05-05 02:16 | 60.79658 | -147.85332 | 31797 ft | 464 kts | 125° |
| 2026-05-05 02:16 | 60.78214 | -147.79437 | 32347 ft | 463 kts | 125° |
| 2026-05-05 02:16 | 60.76769 | -147.73546 | 32926 ft | 463 kts | 125° |
| 2026-05-05 02:17 | 60.75323 | -147.67675 | 33475 ft | 462 kts | 125° |
| 2026-05-05 02:17 | 60.73873 | -147.61804 | 34009 ft | 462 kts | 125° |
| 2026-05-05 02:17 | 60.72422 | -147.55947 | 34434 ft | 462 kts | 125° |
| 2026-05-05 02:17 | 60.70970 | -147.50097 | 34831 ft | 463 kts | 125° |
| 2026-05-05 02:18 | 60.69511 | -147.44233 | 35230 ft | 464 kts | 125° |